createdAt,value
2019-03-26T00:02:09.351Z,98880.95
2019-03-26T00:05:15.771Z,98878.33
2019-03-26T00:08:22.317Z,98876.23
2019-03-26T00:11:28.750Z,98876.67
2019-03-26T00:14:35.179Z,98876.11
2019-03-26T00:17:41.680Z,98880.03
2019-03-26T00:20:48.157Z,98881.91
2019-03-26T00:23:55.642Z,98879.19
2019-03-26T00:27:02.186Z,98879.47
2019-03-26T00:30:08.947Z,98889.39
2019-03-26T00:33:15.369Z,98894.06
2019-03-26T00:36:21.797Z,98896.66
2019-03-26T00:39:28.207Z,98895.88
2019-03-26T00:42:34.786Z,98893.73
2019-03-26T00:45:41.557Z,98894.75
2019-03-26T00:48:48.099Z,98894.78
2019-03-26T00:51:54.587Z,98887.17
2019-03-26T00:55:01.013Z,98879.87
2019-03-26T00:58:07.521Z,98883.84
2019-03-26T01:01:14.248Z,98888.20
2019-03-26T01:04:32.136Z,98890.23
2019-03-26T01:07:28.867Z,98888.28
2019-03-26T01:10:35.426Z,98886.83
2019-03-26T01:13:41.869Z,98893.39
2019-03-26T01:16:48.343Z,98894.78
2019-03-26T01:19:54.871Z,98892.72
2019-03-26T01:23:01.360Z,98885.23
2019-03-26T01:26:07.795Z,98887.76
2019-03-26T01:29:14.228Z,98887.33
2019-03-26T01:32:20.776Z,98893.30
2019-03-26T01:35:27.244Z,98894.94
2019-03-26T01:38:33.763Z,98896.70
2019-03-26T01:41:41.171Z,98902.52
2019-03-26T01:44:47.614Z,98904.23
2019-03-26T01:47:54.023Z,98903.55
2019-03-26T01:51:00.521Z,98907.75
2019-03-26T01:54:07.061Z,98906.05
2019-03-26T01:57:13.814Z,98915.39
2019-03-26T02:00:20.488Z,98911.51
2019-03-26T02:03:27.108Z,98902.42
2019-03-26T02:06:33.557Z,98909.66
2019-03-26T02:09:39.991Z,98903.39
2019-03-26T02:12:48.606Z,98903.67
2019-03-26T02:15:54.571Z,98906.01
2019-03-26T02:19:00.863Z,98913.50
2019-03-26T02:22:07.127Z,98909.36
2019-03-26T02:25:13.502Z,98916.75
2019-03-26T02:28:19.748Z,98926.89
2019-03-26T02:31:26.087Z,98930.84
2019-03-26T02:34:32.361Z,98928.33
2019-03-26T02:37:40.723Z,98927.06
2019-03-26T02:40:47.199Z,98929.84
2019-03-26T02:43:53.642Z,98928.35
2019-03-26T02:46:59.921Z,98930.36
2019-03-26T02:50:06.594Z,98929.84
2019-03-26T02:53:12.955Z,98933.52
2019-03-26T02:56:19.358Z,98931.62
2019-03-26T02:59:25.681Z,98936.39
2019-03-26T03:02:31.968Z,98931.66
2019-03-26T03:05:38.307Z,98935.33
2019-03-26T03:08:44.690Z,98932.59
2019-03-26T03:11:51.063Z,98926.91
2019-03-26T03:14:57.335Z,98933.35
2019-03-26T03:18:03.638Z,98934.76
2019-03-26T03:21:10.008Z,98935.42
2019-03-26T03:24:16.327Z,98937.70
2019-03-26T03:27:22.663Z,98932.55
2019-03-26T03:30:29.017Z,98941.59
2019-03-26T03:33:35.350Z,98949.47
2019-03-26T03:36:41.766Z,98955.41
2019-03-26T03:39:48.090Z,98955.33
2019-03-26T03:42:54.352Z,98949.37
2019-03-26T03:46:01.606Z,98955.23
2019-03-26T03:49:07.989Z,98951.16
2019-03-26T03:52:15.756Z,98959.32
2019-03-26T03:55:22.125Z,98959.84
2019-03-26T03:58:30.299Z,98960.55
2019-03-26T04:01:36.561Z,98967.92
2019-03-26T04:04:43.047Z,98972.57
2019-03-26T04:07:49.398Z,98973.98
2019-03-26T04:10:55.679Z,98971.98
2019-03-26T04:14:01.995Z,98975.57
2019-03-26T04:17:08.277Z,98979.58
2019-03-26T04:20:14.640Z,98997.54
2019-03-26T04:23:21.002Z,99006.48
2019-03-26T04:26:27.273Z,99012.38
2019-03-26T04:29:33.679Z,99014.16
2019-03-26T04:32:39.939Z,99023.81
2019-03-26T04:35:46.270Z,99023.48
2019-03-26T04:38:52.530Z,99024.63
2019-03-26T04:41:58.801Z,99022.03
2019-03-26T04:45:05.460Z,99025.28
2019-03-26T04:48:11.774Z,99024.31
2019-03-26T04:51:18.206Z,99031.65
2019-03-26T04:54:24.510Z,99035.39
2019-03-26T04:57:31.971Z,99038.64
2019-03-26T05:00:38.313Z,99044.05
2019-03-26T05:03:44.569Z,99039.25
2019-03-26T05:06:50.911Z,99041.39
2019-03-26T05:09:57.208Z,99041.92
2019-03-26T05:13:03.504Z,99048.02
2019-03-26T05:16:09.846Z,99049.05
2019-03-26T05:19:16.216Z,99046.91
2019-03-26T05:22:24.271Z,99047.83
2019-03-26T05:25:30.904Z,99052.05
2019-03-26T05:28:37.173Z,99052.62
2019-03-26T05:31:43.536Z,99058.27
2019-03-26T05:34:49.796Z,99052.50
2019-03-26T05:37:56.103Z,99057.86
2019-03-26T05:41:02.383Z,99062.20
2019-03-26T05:44:09.786Z,99073.17
2019-03-26T05:47:16.080Z,99079.27
2019-03-26T05:50:22.346Z,99083.02
2019-03-26T05:53:28.812Z,99087.95
2019-03-26T05:56:35.079Z,99081.25
2019-03-26T05:59:41.535Z,99090.40
2019-03-26T06:02:47.856Z,99092.67
2019-03-26T06:05:54.168Z,99096.33
2019-03-26T06:09:00.459Z,99098.77
2019-03-26T06:12:09.830Z,99108.13
2019-03-26T06:15:16.379Z,99111.38
2019-03-26T06:18:22.810Z,99108.81
2019-03-26T06:21:29.088Z,99108.91
2019-03-26T06:24:35.663Z,99108.63
2019-03-26T06:27:41.948Z,99110.03
2019-03-26T06:30:48.351Z,99119.09
2019-03-26T06:33:55.745Z,99117.13
2019-03-26T06:37:02.429Z,99119.73
2019-03-26T06:40:10.109Z,99115.72
2019-03-26T06:43:16.492Z,99113.70
2019-03-26T06:46:22.982Z,99119.55
2019-03-26T06:49:29.331Z,99120.80
2019-03-26T06:52:36.833Z,99121.38
2019-03-26T06:55:43.131Z,99125.81
2019-03-26T06:58:50.467Z,99122.61
2019-03-26T07:01:57.090Z,99118.26
2019-03-26T07:05:03.381Z,99113.28
2019-03-26T07:08:09.848Z,99118.90
2019-03-26T07:11:16.282Z,99119.98
2019-03-26T07:14:22.563Z,99116.17
2019-03-26T07:17:29.355Z,99110.42
2019-03-26T07:20:35.833Z,99115.89
2019-03-26T07:23:42.164Z,99117.73
2019-03-26T07:26:48.440Z,99125.70
2019-03-26T07:29:54.823Z,99116.25
2019-03-26T07:33:01.110Z,99121.98
2019-03-26T07:36:07.546Z,99112.19
2019-03-26T07:39:13.916Z,99116.02
2019-03-26T07:42:20.237Z,99124.16
2019-03-26T07:45:26.503Z,99127.08
2019-03-26T07:48:32.790Z,99125.52
2019-03-26T07:51:39.065Z,99134.81
2019-03-26T07:54:45.611Z,99129.66
2019-03-26T07:57:51.992Z,99132.35
2019-03-26T08:00:58.329Z,99128.77
2019-03-26T08:04:04.795Z,99133.49
2019-03-26T08:07:11.104Z,99130.84
2019-03-26T08:10:17.405Z,99130.52
2019-03-26T08:13:23.890Z,99132.17
2019-03-26T08:16:30.234Z,99133.88
2019-03-26T08:19:36.537Z,99123.44
2019-03-26T08:22:42.848Z,99132.78
2019-03-26T08:25:49.217Z,99122.44
2019-03-26T08:28:55.549Z,99125.13
2019-03-26T08:32:01.868Z,99127.22
2019-03-26T08:35:08.356Z,99123.06
2019-03-26T08:38:14.826Z,99134.61
2019-03-26T08:41:21.149Z,99117.72
2019-03-26T08:44:27.531Z,99127.11
2019-03-26T08:47:33.824Z,99121.96
2019-03-26T08:50:40.154Z,99128.53
2019-03-26T08:53:47.547Z,99126.52
2019-03-26T08:56:54.078Z,99123.02
2019-03-26T09:00:00.534Z,99124.02
2019-03-26T09:03:07.195Z,99116.81
2019-03-26T09:06:13.453Z,99119.40
2019-03-26T09:09:19.724Z,99117.69
2019-03-26T09:12:26.121Z,99117.69
2019-03-26T09:15:32.573Z,99116.55
2019-03-26T09:18:38.958Z,99116.55
2019-03-26T09:21:45.434Z,99129.91
2019-03-26T09:24:51.703Z,99122.59
2019-03-26T09:27:58.072Z,99125.19
2019-03-26T09:31:04.645Z,99107.88
2019-03-26T09:34:10.927Z,99107.88
2019-03-26T09:37:17.257Z,99125.05
2019-03-26T09:40:23.521Z,99122.97
2019-03-26T09:43:29.879Z,99118.16
2019-03-26T09:46:36.380Z,99122.13
2019-03-26T09:49:42.657Z,99122.13
2019-03-26T09:52:48.948Z,99123.16
2019-03-26T09:55:55.259Z,99121.05
2019-03-26T09:59:01.543Z,99122.42
2019-03-26T10:02:08.114Z,99123.83
2019-03-26T10:05:14.790Z,99122.75
2019-03-26T10:08:21.122Z,99122.62
2019-03-26T10:11:27.401Z,99116.19
2019-03-26T10:14:33.901Z,99114.22
2019-03-26T10:17:40.244Z,99116.80
2019-03-26T10:20:46.571Z,99122.63
2019-03-26T10:23:52.983Z,99122.84
2019-03-26T10:26:59.249Z,99124.29
2019-03-26T10:30:06.156Z,99122.66
2019-03-26T10:33:13.689Z,99119.70
2019-03-26T10:36:20.024Z,99116.70
2019-03-26T10:39:26.284Z,99123.73
2019-03-26T10:42:32.653Z,99128.41
2019-03-26T10:45:39.021Z,99120.92
2019-03-26T10:48:45.354Z,99128.73
2019-03-26T10:51:51.621Z,99129.83
2019-03-26T10:54:57.939Z,99122.53
2019-03-26T10:58:04.703Z,99126.59
2019-03-26T11:01:12.151Z,99117.22
2019-03-26T11:04:19.894Z,99120.63
2019-03-26T11:07:26.177Z,99119.31
2019-03-26T11:10:32.915Z,99120.75
2019-03-26T11:13:39.206Z,99119.16
2019-03-26T11:16:46.610Z,99112.78
2019-03-26T11:19:52.974Z,99114.36
2019-03-26T11:22:59.401Z,99108.52
2019-03-26T11:26:06.079Z,99113.33
2019-03-26T11:29:12.567Z,99106.11
2019-03-26T11:32:18.825Z,99107.37
2019-03-26T11:35:25.200Z,99106.05
2019-03-26T11:38:31.558Z,99097.22
2019-03-26T11:41:39.006Z,99099.23
2019-03-26T11:44:45.392Z,99088.85
2019-03-26T11:47:51.836Z,99088.08
2019-03-26T11:50:58.248Z,99089.52
2019-03-26T11:54:04.674Z,99090.85
2019-03-26T11:57:11.160Z,99093.52
2019-03-26T12:00:21.515Z,99100.42
2019-03-26T12:03:27.938Z,99101.37
2019-03-26T12:06:37.230Z,99099.31
2019-03-26T12:09:46.599Z,99107.38
2019-03-26T12:12:52.661Z,99111.25
2019-03-26T12:15:59.106Z,99111.67
2019-03-26T12:19:05.771Z,99112.14
2019-03-26T12:22:12.200Z,99113.70
2019-03-26T12:25:19.594Z,99117.15
2019-03-26T12:28:25.870Z,99113.53
2019-03-26T12:31:32.140Z,99118.44
2019-03-26T12:34:38.402Z,99123.41
2019-03-26T12:37:44.667Z,99127.48
2019-03-26T12:40:51.552Z,99127.03
2019-03-26T12:43:58.043Z,99132.41
2019-03-26T12:47:04.344Z,99133.09
2019-03-26T12:50:11.478Z,99119.58
2019-03-26T12:53:17.832Z,99131.34
2019-03-26T12:56:24.126Z,99136.41
2019-03-26T12:59:30.491Z,99141.75
2019-03-26T13:02:36.937Z,99146.38
2019-03-26T13:05:43.257Z,99146.84
2019-03-26T13:08:49.508Z,99150.42
2019-03-26T13:11:55.862Z,99152.63
2019-03-26T13:15:02.339Z,99148.70
2019-03-26T13:18:11.192Z,99151.61
2019-03-26T13:21:20.582Z,99161.20
2019-03-26T13:24:27.849Z,99163.60
2019-03-26T13:27:34.141Z,99172.05
2019-03-26T13:30:40.709Z,99179.48
2019-03-26T13:33:47.028Z,99187.53
2019-03-26T13:36:53.301Z,99194.55
2019-03-26T13:39:59.646Z,99207.05
2019-03-26T13:43:06.171Z,99207.05
2019-03-26T13:46:12.600Z,99208.45
2019-03-26T13:49:18.932Z,99209.31
2019-03-26T13:52:25.431Z,99217.00
2019-03-26T13:55:31.801Z,99214.68
2019-03-26T13:58:38.071Z,99215.86
2019-03-26T14:01:44.745Z,99231.86
2019-03-26T14:04:51.024Z,99239.44
2019-03-26T14:07:57.562Z,99240.49
2019-03-26T14:11:04.192Z,99248.05
2019-03-26T14:14:10.612Z,99252.02
2019-03-26T14:17:16.980Z,99235.84
2019-03-26T14:20:23.563Z,99248.24
2019-03-26T14:23:29.999Z,99260.92
2019-03-26T14:26:36.262Z,99264.81
2019-03-26T14:29:42.572Z,99261.61
2019-03-26T14:32:48.944Z,99277.72
2019-03-26T14:35:55.327Z,99282.11
2019-03-26T14:39:01.662Z,99299.02
2019-03-26T14:42:08.874Z,99307.86
2019-03-26T14:45:15.306Z,99312.88
2019-03-26T14:48:21.813Z,99316.67
2019-03-26T14:51:28.627Z,99313.74
2019-03-26T14:54:35.535Z,99320.58
2019-03-26T14:57:42.798Z,99330.16
2019-03-26T15:00:49.091Z,99321.53
2019-03-26T15:03:55.381Z,99324.81
2019-03-26T15:07:01.711Z,99323.88
2019-03-26T15:10:09.264Z,99329.39
2019-03-26T15:13:16.291Z,99333.84
2019-03-26T15:16:22.851Z,99350.94
2019-03-26T15:19:29.175Z,99345.25
2019-03-26T15:22:36.745Z,99352.55
2019-03-26T15:25:43.639Z,99364.77
2019-03-26T15:28:49.980Z,99369.61
2019-03-26T15:31:56.297Z,99376.73
2019-03-26T15:35:02.553Z,99385.70
2019-03-26T15:38:09.052Z,99386.52
2019-03-26T15:41:21.377Z,99391.89
2019-03-26T15:44:23.840Z,99401.02
2019-03-26T15:47:30.162Z,99411.73
2019-03-26T15:50:41.141Z,99419.59
2019-03-26T15:53:47.465Z,99417.34
2019-03-26T15:56:53.989Z,99421.91
2019-03-26T16:00:00.432Z,99431.23
2019-03-26T16:03:06.966Z,99435.23
2019-03-26T16:06:13.355Z,99444.90
2019-03-26T16:09:19.648Z,99443.03
2019-03-26T16:12:26.098Z,99456.29
2019-03-26T16:15:43.567Z,99462.81
2019-03-26T16:18:40.475Z,99465.78
2019-03-26T16:21:46.964Z,99471.05
2019-03-26T16:24:53.576Z,99476.13
2019-03-26T16:28:00.892Z,99487.30
2019-03-26T16:31:07.189Z,99492.03
2019-03-26T16:34:13.483Z,99498.13
2019-03-26T16:37:19.830Z,99505.98
2019-03-26T16:40:26.111Z,99509.09
2019-03-26T16:43:32.390Z,99517.60
2019-03-26T16:46:38.714Z,99525.63
2019-03-26T16:49:45.120Z,99529.98
2019-03-26T16:52:51.600Z,99543.93
2019-03-26T16:55:58.058Z,99546.92
2019-03-26T16:59:04.419Z,99549.55
2019-03-26T17:02:10.815Z,99561.98
2019-03-26T17:05:21.244Z,99562.48
2019-03-26T17:08:27.543Z,99573.41
2019-03-26T17:11:33.914Z,99569.77
2019-03-26T17:14:40.307Z,99576.55
2019-03-26T17:17:46.740Z,99583.02
2019-03-26T17:20:53.021Z,99580.55
2019-03-26T17:23:59.854Z,99594.47
2019-03-26T17:27:06.497Z,99586.67
2019-03-26T17:30:13.000Z,99598.33
2019-03-26T17:33:19.245Z,99597.03
2019-03-26T17:36:25.511Z,99604.38
2019-03-26T17:39:31.865Z,99603.63
2019-03-26T17:42:38.152Z,99624.95
2019-03-26T17:45:44.553Z,99629.30
2019-03-26T17:48:51.025Z,99630.48
2019-03-26T17:51:57.431Z,99633.92
2019-03-26T17:55:04.052Z,99638.92
2019-03-26T17:58:10.333Z,99638.02
2019-03-26T18:01:16.766Z,99620.11
2019-03-26T18:04:23.268Z,99637.61
2019-03-26T18:07:29.743Z,99645.88
2019-03-26T18:10:36.033Z,99643.08
2019-03-26T18:13:43.484Z,99647.92
2019-03-26T18:16:49.785Z,99643.53
2019-03-26T18:19:56.046Z,99652.30
2019-03-26T18:23:02.865Z,99662.52
2019-03-26T18:26:09.225Z,99656.99
2019-03-26T18:29:15.565Z,99661.48
2019-03-26T18:32:21.852Z,99660.86
2019-03-26T18:35:29.170Z,99666.75
2019-03-26T18:38:35.537Z,99681.70
2019-03-26T18:41:41.994Z,99676.09
2019-03-26T18:44:48.278Z,99680.11
2019-03-26T18:47:54.736Z,99689.66
2019-03-26T18:51:01.003Z,99689.33
2019-03-26T18:54:07.424Z,99697.27
2019-03-26T18:57:13.742Z,99694.91
2019-03-26T19:00:36.210Z,99702.52
2019-03-26T19:03:42.942Z,99709.00
2019-03-26T19:06:49.454Z,99702.77
2019-03-26T19:09:55.860Z,99706.27
2019-03-26T19:13:02.484Z,99706.33
2019-03-26T19:16:08.761Z,99699.04
2019-03-26T19:19:15.088Z,99710.63
2019-03-26T19:22:21.346Z,99709.28
2019-03-26T19:25:27.871Z,99712.39
2019-03-26T19:28:34.174Z,99705.13
2019-03-26T19:31:41.025Z,99714.58
2019-03-26T19:34:47.344Z,99722.47
2019-03-26T19:37:53.681Z,99715.20
2019-03-26T19:40:59.993Z,99724.50
2019-03-26T19:44:06.287Z,99726.14
2019-03-26T19:47:12.652Z,99721.95
2019-03-26T19:50:19.057Z,99728.63
2019-03-26T19:53:25.383Z,99729.45
2019-03-26T19:56:31.661Z,99730.84
2019-03-26T19:59:37.933Z,99737.21
2019-03-26T20:02:44.505Z,99735.94
2019-03-26T20:05:50.852Z,99733.98
2019-03-26T20:08:57.514Z,99734.35
2019-03-26T20:12:03.766Z,99737.36
2019-03-26T20:15:11.148Z,99730.62
2019-03-26T20:18:18.623Z,99736.06
2019-03-26T20:21:27.627Z,99743.63
2019-03-26T20:24:33.895Z,99746.58
2019-03-26T20:27:40.358Z,99753.80
2019-03-26T20:30:46.656Z,99759.32
2019-03-26T20:33:53.052Z,99763.91
2019-03-26T20:36:59.399Z,99768.71
2019-03-26T20:40:07.434Z,99770.30
2019-03-26T20:43:13.727Z,99766.09
2019-03-26T20:46:20.190Z,99765.76
2019-03-26T20:49:26.922Z,99763.30
2019-03-26T20:52:33.218Z,99773.00
2019-03-26T20:55:39.648Z,99767.91
2019-03-26T20:58:46.451Z,99773.52
2019-03-26T21:01:52.827Z,99767.77
2019-03-26T21:04:59.336Z,99771.53
2019-03-26T21:08:05.941Z,99767.59
2019-03-26T21:11:12.370Z,99775.96
2019-03-26T21:14:18.617Z,99773.84
2019-03-26T21:17:26.020Z,99771.36
2019-03-26T21:20:32.385Z,99777.61
2019-03-26T21:23:38.811Z,99778.92
2019-03-26T21:26:45.081Z,99775.45
2019-03-26T21:29:51.329Z,99778.45
2019-03-26T21:32:57.760Z,99780.35
2019-03-26T21:36:05.729Z,99780.52
2019-03-26T21:39:11.971Z,99783.95
2019-03-26T21:42:18.345Z,99788.47
2019-03-26T21:45:52.640Z,99786.92
2019-03-26T21:48:59.067Z,99776.41
2019-03-26T21:52:05.313Z,99777.72
2019-03-26T21:55:13.389Z,99777.72
2019-03-26T21:58:20.023Z,99777.91
2019-03-26T22:01:26.302Z,99784.60
2019-03-26T22:04:32.569Z,99790.70
2019-03-26T22:07:38.858Z,99792.48
2019-03-26T22:10:45.138Z,99797.20
2019-03-26T22:13:51.492Z,99804.20
2019-03-26T22:16:57.939Z,99801.85
2019-03-26T22:20:04.885Z,99810.28
2019-03-26T22:23:11.294Z,99808.25
2019-03-26T22:26:17.687Z,99818.70
2019-03-26T22:29:23.959Z,99818.97
2019-03-26T22:32:30.723Z,99824.25
2019-03-26T22:35:36.964Z,99826.39
2019-03-26T22:38:44.283Z,99833.41
2019-03-26T22:41:50.542Z,99835.38
2019-03-26T22:44:56.854Z,99840.35
2019-03-26T22:48:03.214Z,99842.67
2019-03-26T22:51:10.590Z,99841.20
2019-03-26T22:54:16.895Z,99840.70
2019-03-26T22:57:23.207Z,99846.67
2019-03-26T23:00:34.530Z,99844.52
2019-03-26T23:03:42.448Z,99839.64
2019-03-26T23:06:48.778Z,99838.02
2019-03-26T23:09:55.086Z,99843.50
2019-03-26T23:13:01.372Z,99847.63
2019-03-26T23:16:07.926Z,99851.84
2019-03-26T23:19:14.311Z,99849.42
2019-03-26T23:22:20.583Z,99852.33
2019-03-26T23:25:26.947Z,99846.45
2019-03-26T23:28:33.197Z,99845.38
2019-03-26T23:31:39.458Z,99847.92
2019-03-26T23:34:45.891Z,99854.92
2019-03-26T23:37:52.130Z,99851.52
2019-03-26T23:40:58.372Z,99856.28
2019-03-26T23:44:04.656Z,99863.64
2019-03-26T23:47:10.941Z,99869.45
2019-03-26T23:50:17.416Z,99872.48
2019-03-26T23:53:23.770Z,99867.20
2019-03-26T23:56:30.033Z,99876.58
2019-03-26T23:59:36.342Z,99873.69
